createdAt,value
2022-09-12T00:01:25.779Z,100178.45
2022-09-12T00:03:59.473Z,100178.96
2022-09-12T00:06:36.345Z,100181.26
2022-09-12T00:09:07.822Z,100178.33
2022-09-12T00:11:38.553Z,100180.12
2022-09-12T00:14:08.422Z,100183.09
2022-09-12T00:16:37.143Z,100174.85
2022-09-12T00:19:06.608Z,100172.25
2022-09-12T00:21:36.638Z,100175.04
2022-09-12T00:24:05.947Z,100171.83
2022-09-12T00:26:34.340Z,100176.63
2022-09-12T00:29:02.347Z,100174.06
2022-09-12T00:31:30.395Z,100175.50
2022-09-12T00:34:01.074Z,100174.73
2022-09-12T00:36:34.428Z,100178.41
2022-09-12T00:39:21.267Z,100168.99
2022-09-12T00:41:49.135Z,100176.17
2022-09-12T00:44:17.203Z,100177.65
2022-09-12T00:47:04.535Z,100175.77
2022-09-12T00:49:39.592Z,100171.52
2022-09-12T00:52:09.579Z,100174.55
2022-09-12T00:54:49.072Z,100175.17
2022-09-12T00:57:21.313Z,100173.48
2022-09-12T00:59:54.470Z,100174.09
2022-09-12T01:02:23.426Z,100174.28
2022-09-12T01:04:52.521Z,100161.19
2022-09-12T01:07:21.973Z,100181.63
2022-09-12T01:09:50.078Z,100182.93
2022-09-12T01:12:18.191Z,100178.46
2022-09-12T01:14:46.158Z,100178.58
2022-09-12T01:17:15.575Z,100177.39
2022-09-12T01:19:53.453Z,100178.46
2022-09-12T01:22:56.966Z,100182.05
2022-09-12T01:25:49.517Z,100180.00
2022-09-12T01:28:52.843Z,100183.27
2022-09-12T01:31:34.213Z,100181.27
2022-09-12T01:34:28.760Z,100183.22
2022-09-12T01:37:17.515Z,100185.34
2022-09-12T01:40:00.934Z,100184.42
2022-09-12T01:42:40.653Z,100186.20
2022-09-12T01:45:09.393Z,100183.48
2022-09-12T01:47:41.675Z,100190.71
2022-09-12T01:50:19.093Z,100189.40
2022-09-12T01:53:02.269Z,100191.46
2022-09-12T01:55:37.449Z,100190.88
2022-09-12T01:58:12.436Z,100188.62
2022-09-12T02:01:15.240Z,100191.28
2022-09-12T02:03:51.924Z,100191.52
2022-09-12T02:06:26.380Z,100193.15
2022-09-12T02:09:29.987Z,100194.18
2022-09-12T02:12:00.507Z,100190.55
2022-09-12T02:14:32.555Z,100194.77
2022-09-12T02:17:25.073Z,100197.98
2022-09-12T02:19:52.842Z,100198.38
2022-09-12T02:22:25.596Z,100203.43
2022-09-12T02:24:59.326Z,100204.73
2022-09-12T02:28:09.251Z,100204.95
2022-09-12T02:30:56.556Z,100200.14
2022-09-12T02:33:38.992Z,100206.30
2022-09-12T02:36:24.331Z,100205.70
2022-09-12T02:38:54.034Z,100204.63
2022-09-12T02:41:23.038Z,100206.20
2022-09-12T02:43:52.661Z,100209.86
2022-09-12T02:46:43.153Z,100209.37
2022-09-12T02:49:12.024Z,100198.06
2022-09-12T02:51:41.163Z,100216.14
2022-09-12T02:54:10.344Z,100218.38
2022-09-12T02:56:42.832Z,100214.24
2022-09-12T02:59:16.664Z,100201.19
2022-09-12T03:02:15.037Z,100212.30
2022-09-12T03:04:53.523Z,100213.23
2022-09-12T03:07:40.319Z,100212.46
2022-09-12T03:10:37.619Z,100216.79
2022-09-12T03:13:14.481Z,100217.81
2022-09-12T03:16:00.871Z,100223.45
2022-09-12T03:18:43.825Z,100212.35
2022-09-12T03:21:44.374Z,100234.77
2022-09-12T03:24:21.608Z,100232.79
2022-09-12T03:27:18.999Z,100238.19
2022-09-12T03:29:49.047Z,100239.56
2022-09-12T03:32:17.306Z,100242.15
2022-09-12T03:34:45.924Z,100244.10
2022-09-12T03:37:13.940Z,100246.44
2022-09-12T03:39:41.916Z,100249.56
2022-09-12T03:42:09.916Z,100213.23
2022-09-12T03:44:37.836Z,100246.55
2022-09-12T03:47:10.574Z,100232.33
2022-09-12T03:49:39.211Z,100243.38
2022-09-12T03:52:07.384Z,100249.04
2022-09-12T03:54:35.318Z,100249.34
2022-09-12T03:57:03.844Z,100252.77
2022-09-12T03:59:32.704Z,100248.83
2022-09-12T04:02:01.109Z,100250.51
2022-09-12T04:04:30.196Z,100232.86
2022-09-12T04:06:59.324Z,100248.77
2022-09-12T04:09:27.217Z,100255.45
2022-09-12T04:11:55.360Z,100252.87
2022-09-12T04:14:23.267Z,100256.10
2022-09-12T04:16:51.324Z,100256.41
2022-09-12T04:19:19.234Z,100254.44
2022-09-12T04:21:47.561Z,100257.79
2022-09-12T04:24:15.599Z,100259.98
2022-09-12T04:26:44.592Z,100258.69
2022-09-12T04:29:15.301Z,100258.90
2022-09-12T04:31:43.358Z,100262.46
2022-09-12T04:34:11.925Z,100264.89
2022-09-12T04:36:40.158Z,100271.64
2022-09-12T04:39:08.763Z,100269.33
2022-09-12T04:41:40.649Z,100272.19
2022-09-12T04:44:13.028Z,100270.77
2022-09-12T04:46:45.511Z,100273.92
2022-09-12T04:49:16.486Z,100276.55
2022-09-12T04:51:44.534Z,100277.23
2022-09-12T04:54:19.038Z,100276.35
2022-09-12T04:56:49.519Z,100240.98
2022-09-12T04:59:20.127Z,100270.88
2022-09-12T05:01:48.798Z,100272.83
2022-09-12T05:04:17.365Z,100275.10
2022-09-12T05:06:47.560Z,100277.42
2022-09-12T05:09:19.577Z,100277.09
2022-09-12T05:12:03.650Z,100276.31
2022-09-12T05:14:33.203Z,100276.15
2022-09-12T05:17:02.409Z,100280.39
2022-09-12T05:19:31.570Z,100282.98
2022-09-12T05:22:00.284Z,100282.88
2022-09-12T05:24:28.471Z,100286.83
2022-09-12T05:26:56.599Z,100283.98
2022-09-12T05:29:25.736Z,100289.47
2022-09-12T05:31:53.883Z,100278.52
2022-09-12T05:34:22.934Z,100290.10
2022-09-12T05:36:52.307Z,100292.52
2022-09-12T05:39:21.055Z,100298.52
2022-09-12T05:41:49.089Z,100293.92
2022-09-12T05:44:18.085Z,100300.39
2022-09-12T05:46:50.658Z,100298.15
2022-09-12T05:49:18.932Z,100299.95
2022-09-12T05:51:46.875Z,100303.86
2022-09-12T05:54:18.097Z,100296.84
2022-09-12T05:56:47.409Z,100304.55
2022-09-12T05:59:21.033Z,100304.46
2022-09-12T06:01:49.329Z,100301.45
2022-09-12T06:04:17.852Z,100305.77
2022-09-12T06:06:46.430Z,100309.15
2022-09-12T06:09:16.382Z,100309.48
2022-09-12T06:11:46.111Z,100306.27
2022-09-12T06:14:17.771Z,100309.61
2022-09-12T06:16:47.451Z,100310.23
2022-09-12T06:19:19.135Z,100311.59
2022-09-12T06:21:49.757Z,100311.48
2022-09-12T06:24:18.862Z,100313.85
2022-09-12T06:26:52.929Z,100314.89
2022-09-12T06:29:22.092Z,100310.27
2022-09-12T06:31:49.875Z,100313.29
2022-09-12T06:34:17.892Z,100313.75
2022-09-12T06:36:48.876Z,100315.17
2022-09-12T06:39:21.940Z,100317.63
2022-09-12T06:41:51.586Z,100320.23
2022-09-12T06:44:21.592Z,100321.06
2022-09-12T06:46:50.208Z,100321.52
2022-09-12T06:49:18.798Z,100320.59
2022-09-12T06:51:46.799Z,100321.94
2022-09-12T06:54:17.418Z,100325.38
2022-09-12T06:56:45.766Z,100326.42
2022-09-12T06:59:13.752Z,100323.63
2022-09-12T07:01:42.097Z,100322.16
2022-09-12T07:04:11.574Z,100323.52
2022-09-12T07:06:42.208Z,100321.72
2022-09-12T07:09:13.758Z,100324.71
2022-09-12T07:11:42.984Z,100308.17
2022-09-12T07:14:14.217Z,100310.27
2022-09-12T07:16:42.891Z,100325.61
2022-09-12T07:19:11.651Z,100326.17
2022-09-12T07:21:41.337Z,100332.54
2022-09-12T07:24:11.095Z,100309.39
2022-09-12T07:26:42.513Z,100339.36
2022-09-12T07:32:06.068Z,100341.64
2022-09-12T07:34:36.089Z,100342.71
2022-09-12T07:37:05.180Z,100347.67
2022-09-12T07:39:33.208Z,100347.70
2022-09-12T07:42:01.478Z,100354.48
2022-09-12T07:44:31.022Z,100357.39
2022-09-12T07:46:58.847Z,100343.90
2022-09-12T07:49:26.791Z,100357.75
2022-09-12T07:51:54.647Z,100361.22
2022-09-12T07:54:23.207Z,100361.27
2022-09-12T07:56:51.942Z,100364.64
2022-09-12T07:59:35.716Z,100363.89
2022-09-12T08:02:17.035Z,100365.45
2022-09-12T08:04:45.549Z,100367.87
2022-09-12T08:07:13.807Z,100366.14
2022-09-12T08:09:41.892Z,100369.08
2022-09-12T08:12:11.176Z,100373.27
2022-09-12T08:14:41.042Z,100373.35
2022-09-12T08:17:09.947Z,100372.95
2022-09-12T08:19:38.956Z,100373.80
2022-09-12T08:22:06.836Z,100377.98
2022-09-12T08:24:34.824Z,100340.84
2022-09-12T08:27:02.845Z,100374.04
2022-09-12T08:29:30.945Z,100375.75
2022-09-12T08:31:58.937Z,100379.67
2022-09-12T08:34:27.098Z,100359.67
2022-09-12T08:36:55.082Z,100380.09
2022-09-12T08:39:24.991Z,100380.77
2022-09-12T08:42:02.659Z,100386.36
2022-09-12T08:44:59.538Z,100380.49
2022-09-12T08:47:32.873Z,100375.27
2022-09-12T08:50:10.206Z,100381.06
2022-09-12T08:52:56.025Z,100379.70
2022-09-12T08:55:24.148Z,100379.27
2022-09-12T08:57:53.136Z,100384.60
2022-09-12T09:00:21.976Z,100381.16
2022-09-12T09:03:10.776Z,100376.61
2022-09-12T09:05:50.015Z,100375.79
2022-09-12T09:08:32.385Z,100376.02
2022-09-12T09:11:05.338Z,100377.11
2022-09-12T09:14:17.687Z,100377.96
2022-09-12T09:16:48.396Z,100375.92
2022-09-12T09:19:27.316Z,100380.54
2022-09-12T09:22:32.545Z,100383.95
2022-09-12T09:25:08.211Z,100382.30
2022-09-12T09:27:58.738Z,100381.39
2022-09-12T09:30:28.968Z,100386.77
2022-09-12T09:33:03.139Z,100388.14
2022-09-12T09:35:45.975Z,100394.39
2022-09-12T09:38:22.781Z,100394.73
2022-09-12T09:41:28.647Z,100386.99
2022-09-12T09:43:58.112Z,100395.24
2022-09-12T09:46:27.344Z,100394.50
2022-09-12T09:48:59.620Z,100396.39
2022-09-12T09:51:34.589Z,100392.30
2022-09-12T09:54:43.312Z,100397.09
2022-09-12T09:57:39.285Z,100398.17
2022-09-12T10:00:27.624Z,100402.52
2022-09-12T10:03:00.355Z,100397.15
2022-09-12T10:05:29.470Z,100400.64
2022-09-12T10:07:57.426Z,100401.04
2022-09-12T10:10:25.817Z,100406.54
2022-09-12T10:13:22.608Z,100410.10
2022-09-12T10:16:07.461Z,100408.17
2022-09-12T10:18:42.653Z,100410.56
2022-09-12T10:21:23.605Z,100401.70
2022-09-12T10:24:13.786Z,100413.11
2022-09-12T10:26:43.406Z,100418.78
2022-09-12T10:29:17.654Z,100414.94
2022-09-12T10:31:54.432Z,100415.48
2022-09-12T10:34:34.078Z,100416.49
2022-09-12T10:37:08.303Z,100419.27
2022-09-12T10:39:38.936Z,100416.81
2022-09-12T10:42:15.099Z,100422.08
2022-09-12T10:44:56.735Z,100423.45
2022-09-12T10:47:31.444Z,100425.89
2022-09-12T10:50:23.278Z,100424.81
2022-09-12T10:52:51.553Z,100429.36
2022-09-12T10:55:26.237Z,100426.15
2022-09-12T10:58:10.820Z,100432.31
2022-09-12T11:00:44.983Z,100430.39
2022-09-12T11:03:38.679Z,100430.86
2022-09-12T11:06:09.011Z,100434.31
2022-09-12T11:09:14.661Z,100434.20
2022-09-12T11:11:58.115Z,100437.77
2022-09-12T11:14:41.084Z,100436.17
2022-09-12T11:17:34.325Z,100437.30
2022-09-12T11:20:21.176Z,100439.66
2022-09-12T11:23:06.900Z,100441.02
2022-09-12T11:25:45.489Z,100440.25
2022-09-12T11:28:36.768Z,100439.71
2022-09-12T11:31:41.326Z,100441.48
2022-09-12T11:34:18.423Z,100428.10
2022-09-12T11:37:21.439Z,100438.89
2022-09-12T11:39:55.576Z,100439.38
2022-09-12T11:42:32.204Z,100443.40
2022-09-12T11:45:13.625Z,100445.17
2022-09-12T11:47:44.914Z,100449.84
2022-09-12T11:50:27.219Z,100451.27
2022-09-12T11:53:05.278Z,100448.84
2022-09-12T11:56:04.532Z,100446.73
2022-09-12T11:58:32.812Z,100448.41
2022-09-12T12:01:16.368Z,100448.79
2022-09-12T12:03:52.799Z,100446.27
2022-09-12T12:06:40.060Z,100449.17
2022-09-12T12:09:08.587Z,100446.52
2022-09-12T12:11:48.959Z,100451.59
2022-09-12T12:14:31.493Z,100448.06
2022-09-12T12:16:59.977Z,100448.87
2022-09-12T12:19:36.943Z,100427.08
2022-09-12T12:22:09.408Z,100449.59
2022-09-12T12:25:06.666Z,100447.04
2022-09-12T12:27:57.005Z,100448.66
2022-09-12T12:30:30.599Z,100452.83
2022-09-12T12:33:13.572Z,100450.48
2022-09-12T12:36:02.547Z,100450.81
2022-09-12T12:38:40.956Z,100453.92
2022-09-12T12:41:18.178Z,100452.35
2022-09-12T12:43:51.213Z,100451.98
2022-09-12T12:46:21.571Z,100450.42
2022-09-12T12:48:55.146Z,100450.30
2022-09-12T12:51:41.379Z,100450.55
2022-09-12T12:54:31.544Z,100447.98
2022-09-12T12:57:26.208Z,100440.13
2022-09-12T13:00:02.640Z,100453.41
2022-09-12T13:02:34.679Z,100449.98
2022-09-12T13:05:06.798Z,100447.46
2022-09-12T13:07:40.390Z,100445.88
2022-09-12T13:10:08.821Z,100443.54
2022-09-12T13:12:46.382Z,100444.02
2022-09-12T13:15:37.046Z,100449.93
2022-09-12T13:18:17.182Z,100445.99
2022-09-12T13:21:16.511Z,100432.66
2022-09-12T13:23:45.690Z,100445.98
2022-09-12T13:26:22.862Z,100447.91
2022-09-12T13:28:51.749Z,100450.70
2022-09-12T13:31:31.196Z,100451.29
2022-09-12T13:34:04.820Z,100451.50
2022-09-12T13:37:10.395Z,100449.40
2022-09-12T13:39:50.099Z,100453.37
2022-09-12T13:42:37.354Z,100453.86
2022-09-12T13:45:23.219Z,100451.31
2022-09-12T13:48:00.459Z,100450.08
2022-09-12T13:51:29.316Z,100452.96
2022-09-12T13:54:30.962Z,100450.14
2022-09-12T13:56:59.879Z,100452.30
2022-09-12T13:59:28.113Z,100455.35
2022-09-12T14:01:56.206Z,100452.64
2022-09-12T14:04:45.474Z,100452.13
2022-09-12T14:07:25.896Z,100449.38
2022-09-12T14:09:59.694Z,100450.36
2022-09-12T14:12:40.774Z,100452.80
2022-09-12T14:15:19.795Z,100454.66
2022-09-12T14:17:55.034Z,100452.67
2022-09-12T14:20:24.472Z,100451.71
2022-09-12T14:22:54.566Z,100451.29
2022-09-12T14:25:30.294Z,100449.81
2022-09-12T14:27:58.648Z,100429.21
2022-09-12T14:30:28.623Z,100447.48
2022-09-12T14:33:11.945Z,100447.01
2022-09-12T14:35:45.933Z,100448.56
2022-09-12T14:38:17.563Z,100448.47
2022-09-12T14:41:21.314Z,100439.98
2022-09-12T14:43:54.775Z,100451.86
2022-09-12T14:46:27.504Z,100448.25
2022-09-12T14:49:01.085Z,100446.31
2022-09-12T14:51:34.130Z,100447.98
2022-09-12T14:54:02.920Z,100444.56
2022-09-12T14:56:53.054Z,100448.52
2022-09-12T14:59:35.596Z,100448.27
2022-09-12T15:02:21.946Z,100447.88
2022-09-12T15:05:15.851Z,100448.09
2022-09-12T15:07:56.264Z,100449.37
2022-09-12T15:10:34.542Z,100450.20
2022-09-12T15:13:05.572Z,100433.33
2022-09-12T15:15:34.160Z,100455.74
2022-09-12T15:18:06.349Z,100443.88
2022-09-12T15:20:39.078Z,100450.75
2022-09-12T15:23:15.380Z,100457.27
2022-09-12T15:25:43.271Z,100458.38
2022-09-12T15:28:22.911Z,100458.20
2022-09-12T15:30:54.077Z,100458.52
2022-09-12T15:33:25.023Z,100454.30
2022-09-12T15:35:53.555Z,100455.02
2022-09-12T15:38:26.155Z,100460.17
2022-09-12T15:40:56.083Z,100461.92
2022-09-12T15:43:26.295Z,100464.95
2022-09-12T15:45:54.431Z,100454.77
2022-09-12T15:48:22.736Z,100465.22
2022-09-12T15:50:50.707Z,100467.59
2022-09-12T15:53:19.126Z,100463.62
2022-09-12T15:55:47.265Z,100463.45
2022-09-12T15:58:15.418Z,100462.77
2022-09-12T16:00:43.402Z,100460.91
2022-09-12T16:03:24.011Z,100463.45
2022-09-12T16:06:01.731Z,100461.60
2022-09-12T16:08:31.663Z,100461.79
2022-09-12T16:11:04.089Z,100464.09
2022-09-12T16:13:32.268Z,100460.09
2022-09-12T16:16:01.258Z,100464.30
2022-09-12T16:18:29.385Z,100461.67
2022-09-12T16:20:57.771Z,100462.48
2022-09-12T16:23:25.860Z,100461.10
2022-09-12T16:28:45.180Z,100462.77
2022-09-12T16:31:14.453Z,100464.41
2022-09-12T16:33:42.450Z,100463.24
2022-09-12T16:36:16.424Z,100461.20
2022-09-12T16:38:50.082Z,100459.66
2022-09-12T16:41:19.925Z,100460.71
2022-09-12T16:43:48.137Z,100461.85
2022-09-12T16:46:19.263Z,100461.45
2022-09-12T16:48:52.544Z,100460.75
2022-09-12T16:51:23.932Z,100464.96
2022-09-12T16:53:52.794Z,100464.91
2022-09-12T16:56:21.225Z,100464.33
2022-09-12T16:58:50.013Z,100468.40
2022-09-12T17:01:21.434Z,100467.02
2022-09-12T17:03:57.197Z,100432.48
2022-09-12T17:06:26.190Z,100473.22
2022-09-12T17:08:59.238Z,100462.65
2022-09-12T17:11:31.188Z,100480.02
2022-09-12T17:14:04.994Z,100487.41
2022-09-12T17:16:39.282Z,100485.50
2022-09-12T17:19:12.757Z,100487.70
2022-09-12T17:21:40.902Z,100480.71
2022-09-12T17:24:09.060Z,100463.19
2022-09-12T17:26:37.002Z,100482.15
2022-09-12T17:29:05.511Z,100478.35
2022-09-12T17:31:34.248Z,100478.89
2022-09-12T17:34:05.343Z,100481.98
2022-09-12T17:36:34.672Z,100469.64
2022-09-12T17:39:04.919Z,100485.19
2022-09-12T17:41:33.807Z,100468.40
2022-09-12T17:44:03.699Z,100482.49
2022-09-12T17:46:37.047Z,100479.90
2022-09-12T17:49:09.767Z,100476.21
2022-09-12T17:51:38.444Z,100477.18
2022-09-12T17:54:12.345Z,100474.09
2022-09-12T17:56:40.594Z,100473.77
2022-09-12T17:59:13.831Z,100477.30
2022-09-12T18:02:02.008Z,100472.33
2022-09-12T18:04:41.631Z,100471.10
2022-09-12T18:07:09.857Z,100471.88
2022-09-12T18:09:39.102Z,100473.48
2022-09-12T18:12:17.067Z,100472.93
2022-09-12T18:14:45.888Z,100474.08
2022-09-12T18:17:13.819Z,100470.31
2022-09-12T18:19:41.777Z,100472.63
2022-09-12T18:22:10.928Z,100475.98
2022-09-12T18:24:40.274Z,100479.58
2022-09-12T18:27:08.283Z,100486.20
2022-09-12T18:29:36.545Z,100486.52
2022-09-12T18:32:04.419Z,100482.73
2022-09-12T18:34:32.641Z,100486.23
2022-09-12T18:37:02.107Z,100477.85
2022-09-12T18:39:30.341Z,100485.35
2022-09-12T18:41:58.369Z,100481.61
2022-09-12T18:44:26.725Z,100485.50
2022-09-12T18:46:54.929Z,100485.45
2022-09-12T18:49:23.401Z,100488.41
2022-09-12T18:51:51.900Z,100486.73
2022-09-12T18:54:21.053Z,100483.40
2022-09-12T18:56:49.492Z,100480.89
2022-09-12T18:59:18.004Z,100480.44
2022-09-12T19:01:48.781Z,100482.85
2022-09-12T19:04:17.491Z,100482.98
2022-09-12T19:06:48.275Z,100485.77
2022-09-12T19:09:19.035Z,100486.20
2022-09-12T19:11:50.786Z,100474.55
2022-09-12T19:14:22.741Z,100483.88
2022-09-12T19:16:52.262Z,100486.06
2022-09-12T19:19:21.345Z,100487.99
2022-09-12T19:21:49.488Z,100490.11
2022-09-12T19:24:18.062Z,100489.08
2022-09-12T19:26:46.095Z,100486.43
2022-09-12T19:29:16.692Z,100486.09
2022-09-12T19:31:45.319Z,100482.77
2022-09-12T19:34:15.980Z,100485.46
2022-09-12T19:36:46.689Z,100479.67
2022-09-12T19:39:20.009Z,100476.76
2022-09-12T19:41:49.420Z,100478.02
2022-09-12T19:44:19.474Z,100477.45
2022-09-12T19:46:47.741Z,100480.64
2022-09-12T19:49:15.909Z,100480.11
2022-09-12T19:51:44.162Z,100477.77
2022-09-12T19:54:12.425Z,100482.28
2022-09-12T19:56:40.546Z,100483.56
2022-09-12T19:59:09.333Z,100479.29
2022-09-12T20:01:40.004Z,100477.31
2022-09-12T20:04:16.902Z,100473.81
2022-09-12T20:06:48.109Z,100466.02
2022-09-12T20:09:16.317Z,100465.48
2022-09-12T20:11:45.440Z,100466.44
2022-09-12T20:14:13.436Z,100468.39
2022-09-12T20:16:41.505Z,100475.94
2022-09-12T20:19:10.544Z,100476.02
2022-09-12T20:21:39.726Z,100476.52
2022-09-12T20:24:12.227Z,100475.54
2022-09-12T20:26:41.367Z,100473.50
2022-09-12T20:29:11.136Z,100472.67
2022-09-12T20:31:42.880Z,100472.60
2022-09-12T20:34:16.330Z,100475.56
2022-09-12T20:36:48.383Z,100471.92
2022-09-12T20:39:20.986Z,100468.15
2022-09-12T20:41:49.106Z,100464.77
2022-09-12T20:44:17.725Z,100461.42
2022-09-12T20:46:46.419Z,100461.73
2022-09-12T20:49:19.333Z,100459.18
2022-09-12T20:51:48.676Z,100459.75
2022-09-12T20:54:17.852Z,100459.34
2022-09-12T20:56:45.780Z,100464.16
2022-09-12T20:59:13.837Z,100462.02
2022-09-12T21:01:46.284Z,100466.02
2022-09-12T21:04:15.323Z,100467.83
2022-09-12T21:09:42.556Z,100463.40
2022-09-12T21:12:12.169Z,100466.60
2022-09-12T21:14:39.924Z,100466.16
2022-09-12T21:17:07.733Z,100461.05
2022-09-12T21:19:36.924Z,100460.83
2022-09-12T21:22:04.661Z,100463.96
2022-09-12T21:24:32.688Z,100461.55
2022-09-12T21:27:04.623Z,100461.63
2022-09-12T21:29:34.887Z,100460.79
2022-09-12T21:32:02.824Z,100462.98
2022-09-12T21:34:30.582Z,100462.16
2022-09-12T21:36:58.775Z,100460.85
2022-09-12T21:39:26.492Z,100458.60
2022-09-12T21:41:54.198Z,100458.48
2022-09-12T21:44:22.637Z,100457.80
2022-09-12T21:46:50.687Z,100454.25
2022-09-12T21:49:18.512Z,100456.58
2022-09-12T21:51:46.471Z,100454.34
2022-09-12T21:54:14.238Z,100450.67
2022-09-12T21:56:42.097Z,100451.04
2022-09-12T21:59:10.325Z,100446.71
2022-09-12T22:01:38.093Z,100444.40
2022-09-12T22:04:05.918Z,100428.23
2022-09-12T22:06:34.992Z,100442.96
2022-09-12T22:09:04.609Z,100446.04
2022-09-12T22:11:33.494Z,100452.42
2022-09-12T22:14:01.641Z,100452.11
2022-09-12T22:16:30.060Z,100453.33
2022-09-12T22:18:58.414Z,100458.09
2022-09-12T22:21:26.970Z,100454.27
2022-09-12T22:24:13.407Z,100452.16
2022-09-12T22:26:46.517Z,100454.00
2022-09-12T22:29:14.589Z,100452.69
2022-09-12T22:31:43.104Z,100449.84
2022-09-12T22:34:11.147Z,100443.21
2022-09-12T22:36:39.500Z,100442.84
2022-09-12T22:39:08.299Z,100443.34
2022-09-12T22:41:37.281Z,100441.73
2022-09-12T22:44:05.705Z,100443.23
2022-09-12T22:46:33.845Z,100443.87
2022-09-12T22:49:02.403Z,100440.24
2022-09-12T22:51:30.664Z,100437.83
2022-09-12T22:53:59.160Z,100438.73
2022-09-12T22:56:27.736Z,100439.13
2022-09-12T22:58:55.934Z,100441.16
2022-09-12T23:01:24.218Z,100435.21
2022-09-12T23:03:54.213Z,100447.38
2022-09-12T23:06:21.899Z,100446.96
2022-09-12T23:08:49.595Z,100452.38
2022-09-12T23:11:19.415Z,100455.48
2022-09-12T23:13:49.164Z,100450.02
2022-09-12T23:16:19.952Z,100447.55
2022-09-12T23:18:48.752Z,100447.13
2022-09-12T23:21:19.415Z,100443.13
2022-09-12T23:23:47.690Z,100439.35
2022-09-12T23:26:21.616Z,100441.61
2022-09-12T23:28:55.594Z,100444.06
2022-09-12T23:31:25.989Z,100439.89
2022-09-12T23:33:54.672Z,100438.48
2022-09-12T23:36:23.645Z,100434.20
2022-09-12T23:38:52.139Z,100430.50
2022-09-12T23:41:20.422Z,100429.31
2022-09-12T23:43:48.751Z,100423.23
2022-09-12T23:46:22.799Z,100419.02
2022-09-12T23:48:53.320Z,100424.38
2022-09-12T23:51:22.085Z,100428.11
2022-09-12T23:53:50.097Z,100430.52
2022-09-12T23:56:17.864Z,100434.25
2022-09-12T23:58:45.614Z,100429.27
